Azuma Maru No.21 — JD3873 — position and weather

sailwx.info

Track history (hours):
 
Tides and Currents Weather Stations Pressure Air Temp Water Temp Dewpoint Dewpoint Depression Visibility Wind Speed Wind Dir Waves Ship Positions

Azuma Maru No.21

Last reported at 2017-Dec-11 15:35 UTC. Time now 2017-Dec-13 20:53 UTC.
Position N 33°20' E 131°43'.

Length 105 m; draft 6.4 m.

Type: Tanker. MMSI: 431006718.

Date/timePositionNaut miles runAvg speedWind from/ knotsBaromVisibWave heightAir tempDewpointWater temp
2017-Dec-11 15:35N 33°20' E 131°43'115.0
2017-Dec-11 15:30N 33°20' E 131°45'914.9
2017-Dec-11 14:55N 33°20' E 131°55'513.0
2017-Dec-11 14:30N 33°16' E 132°00'  
2017-Dec-08 06:32N 33°25' E 131°56'416.0
2017-Dec-08 06:17N 33°29' E 131°55'1115.5
2017-Dec-08 05:35N 33°39' E 131°51'115.5
2017-Dec-08 05:30N 33°41' E 131°50'714.9
2017-Dec-08 05:00N 33°48' E 131°48'814.9
2017-Dec-08 04:29N 33°55' E 131°45'511.1
2017-Dec-08 04:00N 34°01' E 131°47'2 0.4
2017-Dec-07 22:25N 34°02' E 131°49'1 2.5
2017-Dec-07 22:00N 34°01' E 131°48'1 1.3
2017-Dec-07 21:25N 34°01' E 131°47'0 0.0
2017-Dec-07 20:55N 34°01' E 131°47'0 0.0
2017-Dec-07 20:25N 34°01' E 131°47'0 0.0
2017-Dec-07 19:49N 34°01' E 131°47'0 0.1
2017-Dec-07 19:25N 34°01' E 131°47'0 0.1
2017-Dec-07 18:55N 34°01' E 131°47'0 0.0
2017-Dec-07 18:25N 34°01' E 131°47'0 0.0
2017-Dec-07 17:19N 34°01' E 131°47'0 0.0
2017-Dec-07 16:55N 34°01' E 131°47'0 0.0
2017-Dec-07 16:25N 34°01' E 131°47'0 0.0
2017-Dec-07 15:49N 34°01' E 131°47'0 0.0
2017-Dec-07 15:01N 34°01' E 131°47'0 0.0
2017-Dec-07 14:55N 34°01' E 131°47'0 0.0
2017-Dec-07 14:29N 34°01' E 131°47'3 5.4
2017-Dec-07 14:00N 33°59' E 131°45'714.8
2017-Dec-07 13:30N 33°52' E 131°47'815.2
2017-Dec-07 13:00N 33°45' E 131°48'816.1
2017-Dec-07 12:30N 33°37' E 131°51'815.8
2017-Dec-07 12:00N 33°29' E 131°49'816.0
2017-Dec-07 11:30N 33°23' E 131°44'713.1
2017-Dec-07 11:00N 33°17' E 131°41'0 0.0
2017-Dec-07 06:47N 33°17' E 131°41'1 2.7
2017-Dec-07 06:29N 33°17' E 131°41'  
2017-Dec-03 12:56N 34°30' E 138°14'613.9
2017-Dec-03 12:28N 34°31' E 138°22'713.7
2017-Dec-03 11:56N 34°32' E 138°31'714.0
2017-Dec-03 11:25N 34°32' E 138°39'614.0
2017-Dec-03 11:00N 34°33' E 138°47'713.4
2017-Dec-03 10:30N 34°33' E 138°55'612.5
2017-Dec-03 10:00N 34°35' E 139°02'714.7
2017-Dec-03 09:30N 34°41' E 139°07'714.3
2017-Dec-03 09:00N 34°46' E 139°13'814.4
2017-Dec-03 08:29N 34°52' E 139°19'713.9
2017-Dec-03 08:00N 34°56' E 139°26'713.6
2017-Dec-03 07:30N 35°00' E 139°32'714.3
2017-Dec-03 07:01N 35°05' E 139°39'815.5
2017-Dec-03 06:31N 35°10' E 139°45'612.5
2017-Dec-03 06:00N 35°17' E 139°45'612.5
2017-Dec-03 05:30N 35°23' E 139°42'612.6
2017-Dec-03 05:00N 35°27' E 139°48'815.0
2017-Dec-03 04:30N 35°31' E 139°56'5 0.8
2017-Dec-02 22:05N 35°30' E 140°02'0 1.4
2017-Dec-02 22:00N 35°30' E 140°02'2 4.3
2017-Dec-02 21:29N 35°31' E 139°59'0 0.0
2017-Dec-02 20:55N 35°31' E 139°59'0 0.0
2017-Dec-02 20:28N 35°31' E 139°59'1 1.4
2017-Dec-02 20:00N 35°31' E 139°59'714.6
2017-Dec-02 19:30N 35°28' E 139°51'714.2
2017-Dec-02 19:01N 35°22' E 139°45'611.6
2017-Dec-02 18:30N 35°16' E 139°46'713.6
2017-Dec-02 18:01N 35°10' E 139°47'714.0
2017-Dec-02 17:30N 35°03' E 139°43'714.8
2017-Dec-02 17:00N 34°59' E 139°36'816.4
2017-Dec-02 16:30N 34°54' E 139°28'817.1
2017-Dec-02 16:01N 34°49' E 139°19'815.6
2017-Dec-02 15:30N 34°44' E 139°12'815.8
2017-Dec-02 15:01N 34°38' E 139°05'815.8
2017-Dec-02 14:31N 34°33' E 138°58'916.5
2017-Dec-02 13:59N 34°32' E 138°48'916.0
2017-Dec-02 13:28N 34°32' E 138°38'816.0
2017-Dec-02 12:59N 34°31' E 138°29'816.0
2017-Dec-02 12:30N 34°31' E 138°19'815.5
2017-Dec-02 12:00N 34°31' E 138°10'3815.4
2017-Dec-02 09:32N 34°32' E 137°24'116.1
2017-Dec-02 09:28N 34°32' E 137°22'715.9
2017-Dec-02 09:00N 34°32' E 137°13'915.7
2017-Dec-02 08:28N 34°32' E 137°03'814.1
2017-Dec-02 07:51N 34°37' E 136°55'515.4
2017-Dec-02 07:30N 34°41' E 136°50'815.6
2017-Dec-02 07:00N 34°48' E 136°46'815.3
2017-Dec-02 06:30N 34°55' E 136°42'4 1.9
2017-Dec-02 04:20N 34°58' E 136°39'0 0.0
2017-Dec-02 03:56N 34°58' E 136°39'0 0.0
2017-Dec-02 03:29N 34°58' E 136°39'0 0.0
2017-Dec-02 02:50N 34°58' E 136°39'0 0.0
2017-Dec-02 02:29N 34°58' E 136°39'0 0.0
2017-Dec-02 01:50N 34°58' E 136°39'0 0.0
2017-Dec-02 01:26N 34°58' E 136°39'0 0.1
2017-Dec-02 00:42N 34°58' E 136°39'0 1.3
2017-Dec-02 00:30N 34°58' E 136°39'3 7.0
2017-Dec-02 00:00N 34°56' E 136°43'1 2.1
2017-Dec-01 23:30N 34°56' E 136°44'0 0.0
2017-Dec-01 23:00N 34°56' E 136°44'0 0.0
2017-Dec-01 22:30N 34°56' E 136°44'0 0.0
2017-Dec-01 22:00N 34°56' E 136°44'0 0.0
2017-Dec-01 21:30N 34°56' E 136°44'0 0.0
2017-Dec-01 21:00N 34°56' E 136°44'0 0.0
2017-Dec-01 20:30N 34°56' E 136°44'0 0.0
2017-Dec-01 20:00N 34°56' E 136°44'0 0.0
2017-Dec-01 19:30N 34°56' E 136°44'0 0.0
2017-Dec-01 18:57N 34°56' E 136°44'0 0.0
2017-Dec-01 18:30N 34°56' E 136°44'0 0.0
2017-Dec-01 18:00N 34°56' E 136°44'0 0.0
2017-Dec-01 17:30N 34°56' E 136°44'0 0.0
2017-Dec-01 17:00N 34°56' E 136°44'0 0.0
2017-Dec-01 16:30N 34°56' E 136°44'0 0.0
2017-Dec-01 16:00N 34°56' E 136°44'  
Track history (hours):
 
Tides and Currents Weather Stations Pressure Air Temp Water Temp Dewpoint Dewpoint Depression Visibility Wind Speed Wind Dir Waves Ship Positions

Azuma Maru No.21

Last reported at 2017-Dec-11 15:35 UTC. Time now 2017-Dec-13 20:53 UTC.
Position N 33°20' E 131°43'.

Length 105 m; draft 6.4 m.

Type: Tanker. MMSI: 431006718.

Date/timePositionNaut miles runAvg speedWind from/ knotsBaromVisibWave heightAir tempDewpointWater temp
2017-Dec-11 15:35N 33°20' E 131°43'115.0
2017-Dec-11 15:30N 33°20' E 131°45'914.9
2017-Dec-11 14:55N 33°20' E 131°55'513.0
2017-Dec-11 14:30N 33°16' E 132°00'  
2017-Dec-08 06:32N 33°25' E 131°56'416.0
2017-Dec-08 06:17N 33°29' E 131°55'1115.5
2017-Dec-08 05:35N 33°39' E 131°51'115.5
2017-Dec-08 05:30N 33°41' E 131°50'714.9
2017-Dec-08 05:00N 33°48' E 131°48'814.9
2017-Dec-08 04:29N 33°55' E 131°45'511.1
2017-Dec-08 04:00N 34°01' E 131°47'2 0.4
2017-Dec-07 22:25N 34°02' E 131°49'1 2.5
2017-Dec-07 22:00N 34°01' E 131°48'1 1.3
2017-Dec-07 21:25N 34°01' E 131°47'0 0.0
2017-Dec-07 20:55N 34°01' E 131°47'0 0.0
2017-Dec-07 20:25N 34°01' E 131°47'0 0.0
2017-Dec-07 19:49N 34°01' E 131°47'0 0.1
2017-Dec-07 19:25N 34°01' E 131°47'0 0.1
2017-Dec-07 18:55N 34°01' E 131°47'0 0.0
2017-Dec-07 18:25N 34°01' E 131°47'0 0.0
2017-Dec-07 17:19N 34°01' E 131°47'0 0.0
2017-Dec-07 16:55N 34°01' E 131°47'0 0.0
2017-Dec-07 16:25N 34°01' E 131°47'0 0.0
2017-Dec-07 15:49N 34°01' E 131°47'0 0.0
2017-Dec-07 15:01N 34°01' E 131°47'0 0.0
2017-Dec-07 14:55N 34°01' E 131°47'0 0.0
2017-Dec-07 14:29N 34°01' E 131°47'3 5.4
2017-Dec-07 14:00N 33°59' E 131°45'714.8
2017-Dec-07 13:30N 33°52' E 131°47'815.2
2017-Dec-07 13:00N 33°45' E 131°48'816.1
2017-Dec-07 12:30N 33°37' E 131°51'815.8
2017-Dec-07 12:00N 33°29' E 131°49'816.0
2017-Dec-07 11:30N 33°23' E 131°44'713.1
2017-Dec-07 11:00N 33°17' E 131°41'0 0.0
2017-Dec-07 06:47N 33°17' E 131°41'1 2.7
2017-Dec-07 06:29N 33°17' E 131°41'  
2017-Dec-03 12:56N 34°30' E 138°14'613.9
2017-Dec-03 12:28N 34°31' E 138°22'713.7
2017-Dec-03 11:56N 34°32' E 138°31'714.0
2017-Dec-03 11:25N 34°32' E 138°39'614.0
2017-Dec-03 11:00N 34°33' E 138°47'713.4
2017-Dec-03 10:30N 34°33' E 138°55'612.5
2017-Dec-03 10:00N 34°35' E 139°02'714.7
2017-Dec-03 09:30N 34°41' E 139°07'714.3
2017-Dec-03 09:00N 34°46' E 139°13'814.4
2017-Dec-03 08:29N 34°52' E 139°19'713.9
2017-Dec-03 08:00N 34°56' E 139°26'713.6
2017-Dec-03 07:30N 35°00' E 139°32'714.3
2017-Dec-03 07:01N 35°05' E 139°39'815.5
2017-Dec-03 06:31N 35°10' E 139°45'612.5
2017-Dec-03 06:00N 35°17' E 139°45'612.5
2017-Dec-03 05:30N 35°23' E 139°42'612.6
2017-Dec-03 05:00N 35°27' E 139°48'815.0
2017-Dec-03 04:30N 35°31' E 139°56'5 0.8
2017-Dec-02 22:05N 35°30' E 140°02'0 1.4
2017-Dec-02 22:00N 35°30' E 140°02'2 4.3
2017-Dec-02 21:29N 35°31' E 139°59'0 0.0
2017-Dec-02 20:55N 35°31' E 139°59'0 0.0
2017-Dec-02 20:28N 35°31' E 139°59'1 1.4
2017-Dec-02 20:00N 35°31' E 139°59'714.6
2017-Dec-02 19:30N 35°28' E 139°51'714.2
2017-Dec-02 19:01N 35°22' E 139°45'611.6
2017-Dec-02 18:30N 35°16' E 139°46'713.6
2017-Dec-02 18:01N 35°10' E 139°47'714.0
2017-Dec-02 17:30N 35°03' E 139°43'714.8
2017-Dec-02 17:00N 34°59' E 139°36'816.4
2017-Dec-02 16:30N 34°54' E 139°28'817.1
2017-Dec-02 16:01N 34°49' E 139°19'815.6
2017-Dec-02 15:30N 34°44' E 139°12'815.8
2017-Dec-02 15:01N 34°38' E 139°05'815.8
2017-Dec-02 14:31N 34°33' E 138°58'916.5
2017-Dec-02 13:59N 34°32' E 138°48'916.0
2017-Dec-02 13:28N 34°32' E 138°38'816.0
2017-Dec-02 12:59N 34°31' E 138°29'816.0
2017-Dec-02 12:30N 34°31' E 138°19'815.5
2017-Dec-02 12:00N 34°31' E 138°10'3815.4
2017-Dec-02 09:32N 34°32' E 137°24'116.1
2017-Dec-02 09:28N 34°32' E 137°22'715.9
2017-Dec-02 09:00N 34°32' E 137°13'915.7
2017-Dec-02 08:28N 34°32' E 137°03'814.1
2017-Dec-02 07:51N 34°37' E 136°55'515.4
2017-Dec-02 07:30N 34°41' E 136°50'815.6
2017-Dec-02 07:00N 34°48' E 136°46'815.3
2017-Dec-02 06:30N 34°55' E 136°42'4 1.9
2017-Dec-02 04:20N 34°58' E 136°39'0 0.0
2017-Dec-02 03:56N 34°58' E 136°39'0 0.0
2017-Dec-02 03:29N 34°58' E 136°39'0 0.0
2017-Dec-02 02:50N 34°58' E 136°39'0 0.0
2017-Dec-02 02:29N 34°58' E 136°39'0 0.0
2017-Dec-02 01:50N 34°58' E 136°39'0 0.0
2017-Dec-02 01:26N 34°58' E 136°39'0 0.1
2017-Dec-02 00:42N 34°58' E 136°39'0 1.3
2017-Dec-02 00:30N 34°58' E 136°39'3 7.0
2017-Dec-02 00:00N 34°56' E 136°43'1 2.1
2017-Dec-01 23:30N 34°56' E 136°44'0 0.0
2017-Dec-01 23:00N 34°56' E 136°44'0 0.0
2017-Dec-01 22:30N 34°56' E 136°44'0 0.0
2017-Dec-01 22:00N 34°56' E 136°44'0 0.0
2017-Dec-01 21:30N 34°56' E 136°44'0 0.0
2017-Dec-01 21:00N 34°56' E 136°44'0 0.0
2017-Dec-01 20:30N 34°56' E 136°44'0 0.0
2017-Dec-01 20:00N 34°56' E 136°44'0 0.0
2017-Dec-01 19:30N 34°56' E 136°44'0 0.0
2017-Dec-01 18:57N 34°56' E 136°44'0 0.0
2017-Dec-01 18:30N 34°56' E 136°44'0 0.0
2017-Dec-01 18:00N 34°56' E 136°44'0 0.0
2017-Dec-01 17:30N 34°56' E 136°44'0 0.0
2017-Dec-01 17:00N 34°56' E 136°44'0 0.0
2017-Dec-01 16:30N 34°56' E 136°44'0 0.0
2017-Dec-01 16:00N 34°56' E 136°44'  

Dump ship's entire track history